createdAt,value
2017-07-17T00:08:33.932Z,93.72
2017-07-17T00:28:34.479Z,95.96
2017-07-17T00:48:35.019Z,89.33
2017-07-17T01:08:35.433Z,99.03
2017-07-17T01:28:35.890Z,99.36
2017-07-17T01:48:36.396Z,91.99
2017-07-17T02:08:36.911Z,97.63
2017-07-17T02:38:37.570Z,99.98
2017-07-17T02:58:38.088Z,96.81
2017-07-17T03:27:54.412Z,99.99
2017-07-17T03:47:54.978Z,94.89
2017-07-17T04:07:55.508Z,100.00
2017-07-17T04:27:55.962Z,100.00
2017-07-17T04:47:56.516Z,100.00
2017-07-17T05:07:57.053Z,78.35
2017-07-17T05:27:57.529Z,76.99
2017-07-17T05:47:58.143Z,75.50
2017-07-17T06:07:58.679Z,83.24
2017-07-17T06:27:59.192Z,66.13
2017-07-17T06:47:59.745Z,28.53
2017-07-17T07:08:00.286Z,9.06
2017-07-17T07:28:00.803Z,15.69
2017-07-17T07:48:01.314Z,3.37
2017-07-17T08:08:01.850Z,13.49
2017-07-17T08:28:02.401Z,33.31
2017-07-17T08:53:03.051Z,29.23
2017-07-17T09:13:03.471Z,10.57
2017-07-17T09:33:04.023Z,12.77
2017-07-17T09:53:04.580Z,18.76
2017-07-17T10:13:05.106Z,34.00
2017-07-17T10:33:05.643Z,18.10
2017-07-17T10:53:06.110Z,23.99
2017-07-17T11:13:06.611Z,25.44
2017-07-17T11:33:07.080Z,16.48
2017-07-17T12:23:08.334Z,6.72
2017-07-17T12:43:08.857Z,4.74
2017-07-17T13:03:09.408Z,0.33
2017-07-17T13:23:54.472Z,25.08
2017-07-17T13:43:10.477Z,0.04
2017-07-17T14:03:11.022Z,0.26
2017-07-17T14:23:11.502Z,0.29
2017-07-17T14:43:12.026Z,2.62
2017-07-17T15:03:12.531Z,17.35
2017-07-17T15:23:13.076Z,48.24
2017-07-17T15:43:13.607Z,0.08
2017-07-17T16:03:14.158Z,0.00
2017-07-17T16:58:15.607Z,0.00
2017-07-17T17:18:16.081Z,0.38
2017-07-17T17:38:16.578Z,0.00
2017-07-17T17:58:17.112Z,0.12
2017-07-17T18:18:17.583Z,0.00
2017-07-17T18:38:18.044Z,1.39
2017-07-17T18:58:18.551Z,1.64
2017-07-17T19:18:19.067Z,0.06
2017-07-17T19:38:19.595Z,30.67
2017-07-17T19:58:20.184Z,54.74
2017-07-17T20:18:21.617Z,61.83
2017-07-17T20:39:05.558Z,94.87
2017-07-17T20:59:06.065Z,82.30
2017-07-17T21:19:06.572Z,19.92
2017-07-17T21:39:07.166Z,36.57
2017-07-17T21:59:07.586Z,83.99
2017-07-17T22:19:07.916Z,96.03
2017-07-17T22:39:08.484Z,96.86
2017-07-17T23:09:09.095Z,98.65
2017-07-17T23:29:09.460Z,98.59
2017-07-17T23:49:09.829Z,98.51
